createdAt,value
2022-09-20T00:00:34.547Z,79.24
2022-09-20T00:01:34.561Z,78.83
2022-09-20T00:02:34.514Z,79.85
2022-09-20T00:03:34.457Z,78.63
2022-09-20T00:04:34.535Z,78.73
2022-09-20T00:05:35.172Z,78.83
2022-09-20T00:06:34.593Z,79.44
2022-09-20T00:07:34.434Z,78.42
2022-09-20T00:08:34.397Z,78.22
2022-09-20T00:09:34.421Z,78.63
2022-09-20T00:10:34.407Z,79.44
2022-09-20T00:11:34.404Z,78.93
2022-09-20T00:12:34.414Z,78.73
2022-09-20T00:13:35.087Z,79.44
2022-09-20T00:14:34.384Z,79.24
2022-09-20T00:15:34.343Z,78.77
2022-09-20T00:16:34.470Z,79.48
2022-09-20T00:17:34.326Z,81.41
2022-09-20T00:18:34.313Z,81.27
2022-09-20T00:19:34.345Z,81.38
2022-09-20T00:20:34.319Z,78.32
2022-09-20T00:21:34.318Z,80.16
2022-09-20T00:22:34.260Z,78.42
2022-09-20T00:23:34.257Z,79.03
2022-09-20T00:24:34.302Z,79.85
2022-09-20T00:25:34.233Z,78.32
2022-09-20T00:26:34.265Z,78.53
2022-09-20T00:27:34.281Z,78.63
2022-09-20T00:28:34.302Z,80.77
2022-09-20T00:29:34.202Z,78.02
2022-09-20T00:30:34.189Z,78.63
2022-09-20T00:31:34.228Z,80.05
2022-09-20T00:32:34.202Z,79.03
2022-09-20T00:33:34.210Z,78.12
2022-09-20T00:34:34.191Z,79.34
2022-09-20T00:35:34.197Z,78.42
2022-09-20T00:36:34.327Z,80.22
2022-09-20T00:37:34.211Z,78.28
2022-09-20T00:38:34.145Z,76.96
2022-09-20T00:39:34.146Z,77.17
2022-09-20T00:40:34.158Z,77.47
2022-09-20T00:41:34.087Z,78.59
2022-09-20T00:42:34.074Z,79.30
2022-09-20T00:43:34.076Z,78.28
2022-09-20T00:44:34.057Z,77.87
2022-09-20T00:45:34.169Z,78.28
2022-09-20T00:46:34.035Z,77.26
2022-09-20T00:47:34.054Z,77.40
2022-09-20T00:48:33.976Z,78.42
2022-09-20T00:49:34.013Z,79.34
2022-09-20T00:50:34.027Z,77.91
2022-09-20T00:51:34.021Z,78.63
2022-09-20T00:52:34.001Z,80.77
2022-09-20T00:53:33.963Z,78.73
2022-09-20T00:54:33.957Z,79.64
2022-09-20T00:55:33.994Z,79.24
2022-09-20T00:56:33.962Z,78.63
2022-09-20T00:57:34.034Z,78.83
2022-09-20T00:58:33.985Z,78.42
2022-09-20T00:59:33.945Z,78.42
2022-09-20T01:00:34.732Z,79.85
2022-09-20T01:01:34.054Z,80.05
2022-09-20T01:02:33.984Z,79.44
2022-09-20T01:03:33.944Z,78.63
2022-09-20T01:04:33.939Z,80.46
2022-09-20T01:05:34.756Z,78.22
2022-09-20T01:06:33.906Z,78.73
2022-09-20T01:07:33.901Z,79.44
2022-09-20T01:08:33.896Z,78.73
2022-09-20T01:09:33.853Z,78.32
2022-09-20T01:10:33.783Z,79.14
2022-09-20T01:11:33.831Z,78.05
2022-09-20T01:12:33.793Z,78.77
2022-09-20T01:13:33.820Z,79.17
2022-09-20T01:14:33.808Z,79.79
2022-09-20T01:15:33.910Z,79.07
2022-09-20T01:16:34.816Z,78.97
2022-09-20T01:17:33.721Z,78.77
2022-09-20T01:18:33.733Z,79.41
2022-09-20T01:19:33.714Z,79.21
2022-09-20T01:20:33.713Z,80.23
2022-09-20T01:21:33.698Z,80.13
2022-09-20T01:22:33.660Z,81.39
2022-09-20T01:23:33.671Z,82.27
2022-09-20T01:24:33.716Z,80.94
2022-09-20T01:25:33.774Z,80.13
2022-09-20T01:26:33.657Z,80.64
2022-09-20T01:27:33.643Z,80.43
2022-09-20T01:28:33.599Z,79.62
2022-09-20T01:29:33.588Z,79.11
2022-09-20T01:30:33.596Z,79.32
2022-09-20T01:31:33.665Z,79.62
2022-09-20T01:32:33.609Z,79.62
2022-09-20T01:33:33.570Z,79.96
2022-09-20T01:34:33.559Z,80.16
2022-09-20T01:35:33.529Z,80.16
2022-09-20T01:36:33.545Z,80.37
2022-09-20T01:37:33.633Z,80.68
2022-09-20T01:38:33.531Z,81.18
2022-09-20T01:39:33.510Z,81.23
2022-09-20T01:40:33.566Z,81.84
2022-09-20T01:41:33.473Z,81.49
2022-09-20T01:42:33.527Z,81.12
2022-09-20T01:43:33.455Z,81.23
2022-09-20T01:44:33.494Z,81.63
2022-09-20T01:45:33.483Z,81.63
2022-09-20T01:46:33.460Z,81.43
2022-09-20T01:47:33.435Z,81.43
2022-09-20T01:48:33.427Z,81.53
2022-09-20T01:49:33.383Z,81.53
2022-09-20T01:50:33.425Z,81.77
2022-09-20T01:51:33.366Z,82.18
2022-09-20T01:52:33.403Z,82.18
2022-09-20T01:53:33.342Z,82.28
2022-09-20T01:54:33.369Z,82.59
2022-09-20T01:55:33.356Z,82.89
2022-09-20T01:56:33.328Z,82.69
2022-09-20T01:57:33.344Z,83.51
2022-09-20T01:58:33.344Z,82.79
2022-09-20T01:59:33.302Z,82.28
2022-09-20T02:00:33.365Z,82.08
2022-09-20T02:01:33.436Z,82.39
2022-09-20T02:02:33.339Z,82.18
2022-09-20T02:03:33.273Z,82.28
2022-09-20T02:04:33.254Z,81.98
2022-09-20T02:05:33.233Z,82.08
2022-09-20T02:06:33.273Z,82.28
2022-09-20T02:07:33.242Z,82.28
2022-09-20T02:08:33.176Z,82.69
2022-09-20T02:09:33.296Z,83.10
2022-09-20T02:10:33.411Z,82.59
2022-09-20T02:11:33.212Z,84.01
2022-09-20T02:12:33.870Z,83.61
2022-09-20T02:13:33.174Z,82.79
2022-09-20T02:14:33.177Z,82.55
2022-09-20T02:15:33.135Z,82.75
2022-09-20T02:16:33.229Z,82.45
2022-09-20T02:17:33.097Z,82.45
2022-09-20T02:18:33.115Z,83.16
2022-09-20T02:19:33.082Z,81.94
2022-09-20T02:20:33.127Z,81.43
2022-09-20T02:21:33.124Z,82.55
2022-09-20T02:22:33.078Z,81.63
2022-09-20T02:23:33.093Z,81.84
2022-09-20T02:24:33.053Z,81.73
2022-09-20T02:25:33.055Z,81.32
2022-09-20T02:26:33.105Z,81.67
2022-09-20T02:27:33.063Z,81.98
2022-09-20T02:28:33.702Z,82.18
2022-09-20T02:29:33.023Z,82.69
2022-09-20T02:30:32.976Z,83.51
2022-09-20T02:31:33.004Z,82.39
2022-09-20T02:32:32.993Z,81.98
2022-09-20T02:33:33.012Z,82.59
2022-09-20T02:34:32.962Z,82.59
2022-09-20T02:35:32.922Z,83.81
2022-09-20T02:36:32.928Z,82.86
2022-09-20T02:37:32.943Z,83.26
2022-09-20T02:38:32.918Z,82.45
2022-09-20T02:39:32.923Z,82.04
2022-09-20T02:40:32.989Z,81.73
2022-09-20T02:41:32.866Z,81.94
2022-09-20T02:42:32.894Z,82.04
2022-09-20T02:43:32.864Z,82.04
2022-09-20T02:44:32.876Z,82.18
2022-09-20T02:45:32.877Z,82.18
2022-09-20T02:46:32.834Z,82.08
2022-09-20T02:47:32.857Z,82.59
2022-09-20T02:48:33.661Z,82.39
2022-09-20T02:49:32.779Z,82.79
2022-09-20T02:50:32.872Z,83.20
2022-09-20T02:51:32.768Z,82.69
2022-09-20T02:52:32.790Z,82.79
2022-09-20T02:53:32.766Z,82.89
2022-09-20T02:54:32.759Z,83.00
2022-09-20T02:55:32.727Z,83.00
2022-09-20T02:56:32.725Z,83.30
2022-09-20T02:57:32.706Z,83.00
2022-09-20T02:58:32.809Z,83.92
2022-09-20T02:59:32.769Z,82.89
2022-09-20T03:00:32.770Z,82.79
2022-09-20T03:01:32.788Z,83.04
2022-09-20T03:02:32.812Z,83.14
2022-09-20T03:03:32.627Z,83.14
2022-09-20T03:04:32.651Z,83.24
2022-09-20T03:05:32.661Z,83.75
2022-09-20T03:06:32.629Z,83.85
2022-09-20T03:07:32.625Z,83.34
2022-09-20T03:08:32.630Z,82.93
2022-09-20T03:09:32.616Z,83.65
2022-09-20T03:10:32.624Z,83.14
2022-09-20T03:11:33.201Z,83.65
2022-09-20T03:12:32.705Z,83.75
2022-09-20T03:13:32.560Z,83.28
2022-09-20T03:14:32.549Z,84.41
2022-09-20T03:15:32.560Z,84.09
2022-09-20T03:16:32.526Z,83.79
2022-09-20T03:17:32.558Z,84.41
2022-09-20T03:18:32.504Z,83.89
2022-09-20T03:19:32.556Z,84.41
2022-09-20T03:20:32.480Z,84.20
2022-09-20T03:21:32.449Z,85.22
2022-09-20T03:22:32.435Z,84.71
2022-09-20T03:23:32.469Z,84.61
2022-09-20T03:24:32.456Z,83.89
2022-09-20T03:25:32.462Z,83.48
2022-09-20T03:26:32.420Z,84.81
2022-09-20T03:27:32.412Z,83.59
2022-09-20T03:28:32.379Z,83.79
2022-09-20T03:29:32.413Z,83.89
2022-09-20T03:30:32.395Z,84.20
2022-09-20T03:31:32.411Z,84.30
2022-09-20T03:32:32.350Z,84.50
2022-09-20T03:33:32.351Z,84.50
2022-09-20T03:34:32.363Z,84.50
2022-09-20T03:35:32.374Z,84.61
2022-09-20T03:36:32.733Z,84.00
2022-09-20T03:37:32.304Z,83.79
2022-09-20T03:38:32.283Z,83.79
2022-09-20T03:39:32.333Z,83.48
2022-09-20T03:40:32.326Z,83.79
2022-09-20T03:41:32.351Z,84.09
2022-09-20T03:42:32.254Z,83.59
2022-09-20T03:43:32.263Z,84.00
2022-09-20T03:44:32.269Z,84.09
2022-09-20T03:45:32.281Z,84.00
2022-09-20T03:46:32.216Z,84.30
2022-09-20T03:47:32.307Z,84.20
2022-09-20T03:48:32.181Z,84.44
2022-09-20T03:49:32.257Z,84.85
2022-09-20T03:50:32.226Z,84.44
2022-09-20T03:51:34.308Z,84.55
2022-09-20T03:52:32.683Z,84.44
2022-09-20T03:53:32.138Z,85.06
2022-09-20T03:54:32.191Z,84.85
2022-09-20T03:55:32.149Z,84.95
2022-09-20T03:56:32.153Z,84.95
2022-09-20T03:57:32.143Z,84.41
2022-09-20T03:58:32.170Z,85.32
2022-09-20T03:59:32.095Z,86.65
2022-09-20T04:00:32.284Z,83.69
2022-09-20T04:01:32.161Z,83.28
2022-09-20T04:02:32.099Z,82.77
2022-09-20T04:03:32.096Z,82.77
2022-09-20T04:04:32.155Z,82.46
2022-09-20T04:05:32.054Z,83.89
2022-09-20T04:06:31.989Z,83.14
2022-09-20T04:07:32.023Z,83.69
2022-09-20T04:08:31.972Z,83.07
2022-09-20T04:09:31.977Z,83.07
2022-09-20T04:10:31.945Z,83.24
2022-09-20T04:11:31.965Z,83.69
2022-09-20T04:12:32.165Z,83.28
2022-09-20T04:13:31.938Z,83.38
2022-09-20T04:14:31.930Z,82.97
2022-09-20T04:15:32.726Z,83.07
2022-09-20T04:16:32.050Z,83.89
2022-09-20T04:17:31.905Z,82.87
2022-09-20T04:18:31.832Z,82.97
2022-09-20T04:19:33.193Z,83.79
2022-09-20T04:20:31.897Z,84.41
2022-09-20T04:21:31.895Z,83.38
2022-09-20T04:22:31.854Z,83.48
2022-09-20T04:23:31.865Z,82.87
2022-09-20T04:24:31.837Z,83.69
2022-09-20T04:25:31.788Z,83.59
2022-09-20T04:26:31.829Z,84.30
2022-09-20T04:27:31.821Z,83.59
2022-09-20T04:28:31.786Z,83.69
2022-09-20T04:29:31.798Z,84.20
2022-09-20T04:30:32.780Z,83.79
2022-09-20T04:31:31.818Z,83.85
2022-09-20T04:32:32.226Z,83.18
2022-09-20T04:33:31.755Z,82.67
2022-09-20T04:34:31.675Z,83.38
2022-09-20T04:35:31.736Z,82.67
2022-09-20T04:36:31.683Z,83.69
2022-09-20T04:37:31.737Z,83.48
2022-09-20T04:38:31.674Z,83.38
2022-09-20T04:39:31.778Z,83.04
2022-09-20T04:40:31.815Z,82.63
2022-09-20T04:41:32.583Z,82.73
2022-09-20T04:42:31.641Z,83.24
2022-09-20T04:43:31.611Z,82.83
2022-09-20T04:44:31.653Z,82.73
2022-09-20T04:45:31.838Z,82.73
2022-09-20T04:46:31.575Z,82.63
2022-09-20T04:47:31.532Z,82.93
2022-09-20T04:48:31.603Z,83.24
2022-09-20T04:49:31.584Z,82.93
2022-09-20T04:50:31.608Z,82.93
2022-09-20T04:51:31.544Z,82.83
2022-09-20T04:52:31.521Z,82.83
2022-09-20T04:53:31.535Z,82.12
2022-09-20T04:54:31.547Z,81.91
2022-09-20T04:55:31.499Z,82.53
2022-09-20T04:56:31.524Z,81.87
2022-09-20T04:57:31.430Z,81.98
2022-09-20T04:58:31.505Z,82.63
2022-09-20T04:59:31.415Z,81.77
2022-09-20T05:00:31.431Z,81.98
2022-09-20T05:01:32.482Z,82.01
2022-09-20T05:02:31.419Z,82.49
2022-09-20T05:03:31.630Z,81.26
2022-09-20T05:04:31.405Z,82.22
2022-09-20T05:05:31.379Z,82.39
2022-09-20T05:06:31.357Z,82.42
2022-09-20T05:07:31.324Z,81.77
2022-09-20T05:08:31.354Z,81.98
2022-09-20T05:09:31.302Z,82.22
2022-09-20T05:10:32.274Z,81.71
2022-09-20T05:11:31.361Z,82.12
2022-09-20T05:12:31.392Z,82.93
2022-09-20T05:13:31.319Z,82.42
2022-09-20T05:15:31.231Z,83.24
2022-09-20T05:16:31.295Z,82.12
2022-09-20T05:17:31.285Z,82.32
2022-09-20T05:18:31.229Z,82.63
2022-09-20T05:19:31.231Z,82.63
2022-09-20T05:20:31.215Z,82.73
2022-09-20T05:21:31.224Z,82.73
2022-09-20T05:22:31.221Z,82.32
2022-09-20T05:23:31.225Z,82.22
2022-09-20T05:24:31.160Z,83.04
2022-09-20T05:25:31.265Z,82.53
2022-09-20T05:26:31.141Z,82.28
2022-09-20T05:27:31.147Z,82.28
2022-09-20T05:28:31.118Z,83.04
2022-09-20T05:29:31.126Z,82.69
2022-09-20T05:30:31.181Z,83.00
2022-09-20T05:31:31.111Z,82.39
2022-09-20T05:32:31.125Z,81.87
2022-09-20T05:33:31.089Z,82.18
2022-09-20T05:34:31.129Z,81.98
2022-09-20T05:35:31.035Z,82.08
2022-09-20T05:36:34.366Z,82.69
2022-09-20T05:37:31.045Z,82.69
2022-09-20T05:38:31.034Z,83.00
2022-09-20T05:39:31.057Z,81.77
2022-09-20T05:40:31.093Z,81.73
2022-09-20T05:41:30.981Z,82.75
2022-09-20T05:42:30.981Z,81.63
2022-09-20T05:43:30.978Z,81.63
2022-09-20T05:44:31.079Z,82.24
2022-09-20T05:45:31.012Z,81.73
2022-09-20T05:46:30.930Z,82.35
2022-09-20T05:47:30.947Z,81.94
2022-09-20T05:48:30.951Z,80.91
2022-09-20T05:49:30.902Z,82.24
2022-09-20T05:50:30.882Z,82.04
2022-09-20T05:51:31.793Z,82.00
2022-09-20T05:52:30.862Z,80.68
2022-09-20T05:53:30.882Z,80.88
2022-09-20T05:54:30.869Z,81.49
2022-09-20T05:55:30.847Z,80.47
2022-09-20T05:56:30.817Z,81.90
2022-09-20T05:57:30.833Z,80.43
2022-09-20T05:58:30.880Z,79.93
2022-09-20T05:59:31.089Z,80.07
2022-09-20T06:00:30.780Z,80.07
2022-09-20T06:01:30.875Z,82.41
2022-09-20T06:02:30.821Z,80.64
2022-09-20T06:03:30.755Z,79.82
2022-09-20T06:04:30.819Z,80.23
2022-09-20T06:05:30.731Z,80.74
2022-09-20T06:06:32.752Z,79.72
2022-09-20T06:07:30.744Z,79.82
2022-09-20T06:08:30.729Z,80.16
2022-09-20T06:09:30.749Z,80.47
2022-09-20T06:10:30.696Z,80.88
2022-09-20T06:11:30.701Z,80.23
2022-09-20T06:12:30.730Z,80.43
2022-09-20T06:13:30.679Z,80.64
2022-09-20T06:14:32.206Z,79.93
2022-09-20T06:15:30.637Z,79.82
2022-09-20T06:16:30.680Z,80.64
2022-09-20T06:17:30.743Z,80.84
2022-09-20T06:18:30.700Z,79.72
2022-09-20T06:19:30.616Z,78.60
2022-09-20T06:20:30.595Z,78.70
2022-09-20T06:21:30.615Z,79.32
2022-09-20T06:22:30.587Z,80.02
2022-09-20T06:23:30.695Z,80.02
2022-09-20T06:24:30.614Z,78.56
2022-09-20T06:25:30.581Z,78.97
2022-09-20T06:26:30.518Z,79.07
2022-09-20T06:27:30.556Z,79.17
2022-09-20T06:28:30.504Z,79.99
2022-09-20T06:29:30.499Z,80.60
2022-09-20T06:30:31.149Z,79.75
2022-09-20T06:31:30.647Z,77.81
2022-09-20T06:32:30.452Z,78.12
2022-09-20T06:33:30.485Z,78.02
2022-09-20T06:34:30.446Z,78.02
2022-09-20T06:35:30.483Z,77.40
2022-09-20T06:36:30.410Z,77.98
2022-09-20T06:37:30.419Z,76.86
2022-09-20T06:38:30.431Z,76.56
2022-09-20T06:39:30.568Z,77.47
2022-09-20T06:40:30.427Z,77.17
2022-09-20T06:41:30.407Z,76.15
2022-09-20T06:42:30.380Z,77.17
2022-09-20T06:43:30.408Z,77.00
2022-09-20T06:44:30.346Z,77.10
2022-09-20T06:45:30.497Z,77.91
2022-09-20T06:46:30.355Z,77.37
2022-09-20T06:47:30.341Z,76.56
2022-09-20T06:48:30.321Z,77.26
2022-09-20T06:49:31.211Z,76.65
2022-09-20T06:50:30.338Z,76.42
2022-09-20T06:51:30.270Z,75.98
2022-09-20T06:52:30.350Z,74.55
2022-09-20T06:53:30.266Z,71.94
2022-09-20T06:54:30.260Z,70.56
2022-09-20T06:55:30.236Z,68.26
2022-09-20T06:56:30.233Z,65.73
2022-09-20T06:57:30.292Z,63.93
2022-09-20T06:58:30.336Z,62.25
2022-09-20T06:59:30.212Z,60.21
2022-09-20T07:00:30.201Z,59.90
2022-09-20T07:01:30.879Z,60.13
2022-09-20T07:02:30.259Z,63.12
2022-09-20T07:03:30.165Z,63.18
2022-09-20T07:04:30.150Z,64.45
2022-09-20T07:05:30.162Z,65.53
2022-09-20T07:06:30.160Z,67.31
2022-09-20T07:07:30.170Z,68.66
2022-09-20T07:08:30.180Z,69.00
2022-09-20T07:09:30.084Z,69.57
2022-09-20T07:10:30.104Z,70.59
2022-09-20T07:11:30.186Z,71.12
2022-09-20T07:12:30.189Z,71.43
2022-09-20T07:13:30.051Z,71.64
2022-09-20T07:14:30.159Z,72.52
2022-09-20T07:15:30.059Z,71.30
2022-09-20T07:16:30.116Z,71.20
2022-09-20T07:17:30.018Z,70.68
2022-09-20T07:18:30.042Z,71.50
2022-09-20T07:19:30.051Z,70.89
2022-09-20T07:20:30.064Z,71.20
2022-09-20T07:21:30.101Z,72.01
2022-09-20T07:22:30.076Z,70.86
2022-09-20T07:23:29.952Z,70.35
2022-09-20T07:24:30.797Z,70.25
2022-09-20T07:25:30.005Z,69.74
2022-09-20T07:26:30.649Z,70.45
2022-09-20T07:27:29.953Z,70.76
2022-09-20T07:28:29.984Z,71.03
2022-09-20T07:29:29.906Z,69.51
2022-09-20T07:30:29.905Z,68.90
2022-09-20T07:31:29.938Z,69.37
2022-09-20T07:32:29.876Z,68.46
2022-09-20T07:33:30.862Z,67.85
2022-09-20T07:34:30.031Z,68.26
2022-09-20T07:35:29.951Z,69.34
2022-09-20T07:36:29.849Z,70.96
2022-09-20T07:37:31.877Z,71.16
2022-09-20T07:38:29.847Z,71.77
2022-09-20T07:39:29.824Z,71.36
2022-09-20T07:40:29.858Z,70.83
2022-09-20T07:41:30.294Z,71.23
2022-09-20T07:42:29.927Z,69.37
2022-09-20T07:43:29.912Z,69.47
2022-09-20T07:44:29.966Z,68.15
2022-09-20T07:45:30.748Z,67.95
2022-09-20T07:46:30.747Z,67.85
2022-09-20T07:47:29.850Z,67.58
2022-09-20T07:48:29.885Z,68.29
2022-09-20T07:49:29.730Z,69.03
2022-09-20T07:50:30.310Z,69.95
2022-09-20T07:51:29.768Z,69.54
2022-09-20T07:52:29.692Z,69.57
2022-09-20T07:53:29.788Z,69.78
2022-09-20T07:54:29.653Z,71.43
2022-09-20T07:55:29.799Z,70.92
2022-09-20T07:56:29.797Z,70.62
2022-09-20T07:57:29.709Z,71.20
2022-09-20T07:58:29.675Z,71.20
2022-09-20T07:59:30.709Z,71.09
2022-09-20T08:00:29.616Z,70.99
2022-09-20T08:01:29.660Z,70.48
2022-09-20T08:02:29.640Z,69.95
2022-09-20T08:03:30.117Z,70.89
2022-09-20T08:04:29.547Z,70.35
2022-09-20T08:05:29.622Z,70.96
2022-09-20T08:06:29.573Z,70.04
2022-09-20T08:07:29.635Z,70.65
2022-09-20T08:08:29.584Z,69.10
2022-09-20T08:09:29.484Z,70.72
2022-09-20T08:10:29.513Z,71.44
2022-09-20T08:11:29.536Z,68.46
2022-09-20T08:14:29.461Z,66.80
2022-09-20T08:15:30.432Z,68.12
2022-09-20T08:16:29.523Z,66.57
2022-09-20T08:17:29.480Z,67.31
2022-09-20T08:18:29.457Z,67.00
2022-09-20T08:19:29.398Z,67.21
2022-09-20T08:20:29.442Z,67.31
2022-09-20T08:21:29.544Z,67.72
2022-09-20T08:22:29.472Z,68.23
2022-09-20T08:23:29.347Z,69.24
2022-09-20T08:24:29.383Z,67.95
2022-09-20T08:25:29.390Z,67.44
2022-09-20T08:26:29.399Z,67.24
2022-09-20T08:27:29.831Z,67.44
2022-09-20T08:28:29.316Z,67.65
2022-09-20T08:29:29.334Z,68.52
2022-09-20T08:30:29.326Z,66.70
2022-09-20T08:31:30.314Z,65.69
2022-09-20T08:32:29.386Z,65.86
2022-09-20T08:33:29.307Z,66.67
2022-09-20T08:34:29.264Z,65.86
2022-09-20T08:35:29.230Z,65.96
2022-09-20T08:36:35.299Z,66.24
2022-09-20T08:37:29.349Z,65.56
2022-09-20T08:40:29.260Z,63.90
2022-09-20T08:41:29.211Z,65.32
2022-09-20T08:42:33.415Z,64.11
2022-09-20T08:43:29.256Z,62.76
2022-09-20T08:44:29.556Z,62.15
2022-09-20T08:45:36.211Z,62.26
2022-09-20T08:46:29.147Z,63.37
2022-09-20T08:47:29.154Z,61.88
2022-09-20T08:48:30.178Z,63.43
2022-09-20T08:49:29.102Z,64.54
2022-09-20T08:50:30.115Z,64.58
2022-09-20T08:51:29.195Z,65.69
2022-09-20T08:52:29.047Z,65.18
2022-09-20T08:53:29.123Z,65.28
2022-09-20T08:54:32.145Z,66.09
2022-09-20T08:55:29.072Z,66.70
2022-09-20T08:56:29.024Z,65.99
2022-09-20T08:57:29.003Z,65.99
2022-09-20T08:58:28.993Z,66.40
2022-09-20T08:59:28.997Z,63.46
2022-09-20T09:00:29.049Z,61.53
2022-09-20T09:01:29.038Z,62.62
2022-09-20T09:02:28.977Z,60.59
2022-09-20T09:03:28.981Z,61.10
2022-09-20T09:04:28.947Z,61.80
2022-09-20T09:05:28.961Z,63.12
2022-09-20T09:06:29.038Z,61.10
2022-09-20T09:07:28.958Z,61.68
2022-09-20T09:08:28.950Z,60.86
2022-09-20T09:09:28.885Z,60.77
2022-09-20T09:10:28.887Z,61.24
2022-09-20T09:11:28.873Z,61.24
2022-09-20T09:12:28.933Z,60.84
2022-09-20T09:13:28.970Z,60.33
2022-09-20T09:14:29.255Z,58.61
2022-09-20T09:15:28.898Z,59.14
2022-09-20T09:16:35.662Z,58.54
2022-09-20T09:17:28.858Z,59.83
2022-09-20T09:18:31.796Z,62.49
2022-09-20T09:19:36.038Z,59.95
2022-09-20T09:20:28.819Z,61.07
2022-09-20T09:21:28.784Z,62.52
2022-09-20T09:22:28.797Z,63.96
2022-09-20T09:23:29.652Z,65.48
2022-09-20T09:24:28.856Z,65.89
2022-09-20T09:25:28.926Z,66.50
2022-09-20T09:26:28.730Z,67.11
2022-09-20T09:27:28.704Z,67.21
2022-09-20T09:28:28.780Z,67.75
2022-09-20T09:29:31.756Z,68.59
2022-09-20T09:30:28.720Z,69.51
2022-09-20T09:31:28.719Z,69.68
2022-09-20T09:32:28.696Z,70.01
2022-09-20T09:33:28.635Z,70.42
2022-09-20T09:34:28.630Z,70.92
2022-09-20T09:35:28.681Z,71.20
2022-09-20T09:36:28.615Z,70.79
2022-09-20T09:37:29.160Z,71.40
2022-09-20T09:38:28.605Z,72.01
2022-09-20T09:39:28.601Z,72.41
2022-09-20T09:40:28.665Z,72.11
2022-09-20T09:41:28.688Z,72.45
2022-09-20T09:42:28.604Z,72.45
2022-09-20T09:43:28.532Z,72.38
2022-09-20T09:44:28.555Z,73.02
2022-09-20T09:45:28.751Z,73.53
2022-09-20T09:46:28.596Z,74.44
2022-09-20T09:47:28.576Z,73.43
2022-09-20T09:48:28.510Z,73.94
2022-09-20T09:49:28.521Z,74.31
2022-09-20T09:50:28.521Z,74.10
2022-09-20T09:51:28.491Z,72.08
2022-09-20T09:52:28.524Z,72.48
2022-09-20T09:53:29.812Z,72.96
2022-09-20T09:54:28.496Z,71.03
2022-09-20T09:55:28.459Z,72.14
2022-09-20T09:56:28.469Z,70.15
2022-09-20T09:57:28.444Z,70.15
2022-09-20T09:58:28.449Z,71.77
2022-09-20T09:59:28.399Z,71.33
2022-09-20T10:00:28.473Z,68.90
2022-09-20T10:01:33.033Z,68.79
2022-09-20T10:02:28.381Z,68.49
2022-09-20T10:03:28.356Z,69.10
2022-09-20T10:04:28.624Z,68.35
2022-09-20T10:05:28.320Z,67.24
2022-09-20T10:06:28.326Z,67.41
2022-09-20T10:07:28.492Z,66.70
2022-09-20T10:08:28.291Z,67.82
2022-09-20T10:09:28.296Z,68.43
2022-09-20T10:10:28.345Z,67.21
2022-09-20T10:11:28.259Z,67.48
2022-09-20T10:12:28.294Z,65.05
2022-09-20T10:13:28.234Z,66.06
2022-09-20T10:14:28.234Z,64.61
2022-09-20T10:15:28.243Z,64.82
2022-09-20T10:16:28.292Z,64.11
2022-09-20T10:17:28.188Z,63.70
2022-09-20T10:18:28.200Z,62.18
2022-09-20T10:19:28.236Z,63.90
2022-09-20T10:20:28.215Z,63.50
2022-09-20T10:21:28.163Z,64.11
2022-09-20T10:22:28.173Z,62.66
2022-09-20T10:23:58.640Z,62.29
2022-09-20T10:24:28.292Z,63.50
2022-09-20T10:25:28.146Z,64.01
2022-09-20T10:26:28.193Z,64.24
2022-09-20T10:27:28.126Z,64.54
2022-09-20T10:28:28.110Z,65.45
2022-09-20T10:29:28.124Z,64.44
2022-09-20T10:30:28.073Z,64.72
2022-09-20T10:31:28.195Z,64.11
2022-09-20T10:32:28.120Z,64.51
2022-09-20T10:33:28.045Z,64.82
2022-09-20T10:34:28.042Z,65.32
2022-09-20T10:35:28.032Z,63.90
2022-09-20T10:36:28.133Z,65.93
2022-09-20T10:37:28.014Z,64.31
2022-09-20T10:38:27.983Z,64.51
2022-09-20T10:39:27.981Z,62.99
2022-09-20T10:40:28.043Z,63.23
2022-09-20T10:41:27.961Z,63.32
2022-09-20T10:42:27.966Z,63.02
2022-09-20T10:43:27.962Z,62.14
2022-09-20T10:44:27.925Z,59.70
2022-09-20T10:45:53.684Z,57.58
2022-09-20T10:46:32.180Z,57.17
2022-09-20T10:47:27.998Z,58.90
2022-09-20T10:48:27.917Z,59.50
2022-09-20T10:49:27.946Z,59.61
2022-09-20T10:50:27.888Z,61.53
2022-09-20T10:51:27.985Z,57.78
2022-09-20T10:52:27.885Z,57.37
2022-09-20T10:53:27.876Z,59.61
2022-09-20T10:54:27.893Z,59.70
2022-09-20T10:55:27.835Z,61.74
2022-09-20T10:56:27.870Z,59.20
2022-09-20T10:57:27.939Z,56.77
2022-09-20T10:58:27.810Z,56.36
2022-09-20T10:59:27.824Z,56.67
2022-09-20T11:00:27.825Z,59.10
2022-09-20T11:01:27.789Z,57.37
2022-09-20T11:02:27.843Z,59.20
2022-09-20T11:03:28.289Z,60.72
2022-09-20T11:04:27.747Z,59.91
2022-09-20T11:05:27.757Z,61.02
2022-09-20T11:06:27.706Z,61.02
2022-09-20T11:07:27.737Z,60.62
2022-09-20T11:08:27.726Z,61.13
2022-09-20T11:09:27.723Z,63.46
2022-09-20T11:10:27.700Z,62.75
2022-09-20T11:11:27.657Z,66.50
2022-09-20T11:12:27.657Z,65.79
2022-09-20T11:13:27.667Z,65.79
2022-09-20T11:14:27.635Z,66.60
2022-09-20T11:15:27.632Z,68.23
2022-09-20T11:16:27.686Z,68.73
2022-09-20T11:17:27.650Z,67.72
2022-09-20T11:18:27.607Z,70.65
2022-09-20T11:19:27.589Z,70.56
2022-09-20T11:20:27.619Z,70.56
2022-09-20T11:21:27.587Z,70.86
2022-09-20T11:22:27.556Z,69.64
2022-09-20T11:23:27.585Z,69.44
2022-09-20T11:24:27.629Z,69.81
2022-09-20T11:25:29.712Z,69.68
2022-09-20T11:26:27.516Z,70.89
2022-09-20T11:27:27.678Z,69.27
2022-09-20T11:28:27.480Z,68.97
2022-09-20T11:29:27.526Z,70.15
2022-09-20T11:30:27.468Z,67.22
2022-09-20T11:31:27.522Z,65.16
2022-09-20T11:32:27.454Z,63.34
2022-09-20T11:33:28.256Z,62.23
2022-09-20T11:34:27.783Z,60.38
2022-09-20T11:35:27.456Z,59.36
2022-09-20T11:36:27.433Z,56.84
2022-09-20T11:37:27.419Z,56.40
2022-09-20T11:38:27.403Z,53.60
2022-09-20T11:39:27.404Z,53.60
2022-09-20T11:40:27.487Z,56.02
2022-09-20T11:41:27.373Z,54.51
2022-09-20T11:42:27.372Z,52.87
2022-09-20T11:43:27.363Z,55.29
2022-09-20T11:44:27.336Z,53.55
2022-09-20T11:45:28.535Z,52.14
2022-09-20T11:46:27.323Z,51.32
2022-09-20T11:47:52.571Z,50.82
2022-09-20T11:48:27.310Z,48.37
2022-09-20T11:49:27.287Z,51.00
2022-09-20T11:50:27.371Z,49.08
2022-09-20T11:51:27.276Z,51.61
2022-09-20T11:52:27.274Z,52.92
2022-09-20T11:53:27.315Z,49.58
2022-09-20T11:54:27.276Z,47.59
2022-09-20T11:55:27.243Z,48.39
2022-09-20T11:56:27.257Z,48.80
2022-09-20T11:57:27.250Z,47.20
2022-09-20T11:58:27.205Z,48.22
2022-09-20T11:59:27.181Z,54.38
2022-09-20T12:00:27.175Z,51.86
2022-09-20T12:01:28.443Z,50.64
2022-09-20T12:02:27.291Z,50.46
2022-09-20T12:03:27.227Z,50.77
2022-09-20T12:04:35.086Z,50.97
2022-09-20T12:05:27.127Z,51.78
2022-09-20T12:06:27.132Z,51.35
2022-09-20T12:07:27.123Z,51.15
2022-09-20T12:08:27.129Z,49.91
2022-09-20T12:09:27.101Z,48.50
2022-09-20T12:10:27.075Z,48.60
2022-09-20T12:11:27.314Z,47.67
2022-09-20T12:12:27.081Z,49.79
2022-09-20T12:13:27.073Z,49.41
2022-09-20T12:14:27.045Z,51.03
2022-09-20T12:15:27.078Z,51.63
2022-09-20T12:16:27.102Z,51.93
2022-09-20T12:17:27.092Z,53.85
2022-09-20T12:18:27.009Z,53.96
2022-09-20T12:19:27.010Z,53.58
2022-09-20T12:20:27.024Z,54.58
2022-09-20T12:21:26.988Z,54.89
2022-09-20T12:22:27.756Z,55.29
2022-09-20T12:23:26.939Z,55.11
2022-09-20T12:24:26.942Z,55.73
2022-09-20T12:25:26.934Z,56.36
2022-09-20T12:26:26.945Z,56.76
2022-09-20T12:27:26.967Z,55.15
2022-09-20T12:28:26.912Z,55.55
2022-09-20T12:29:26.891Z,55.85
2022-09-20T12:30:26.877Z,55.44
2022-09-20T12:31:26.970Z,54.94
2022-09-20T12:32:26.855Z,55.98
2022-09-20T12:33:26.892Z,55.68
2022-09-20T12:34:26.851Z,56.18
2022-09-20T12:35:26.844Z,56.41
2022-09-20T12:36:26.811Z,55.70
2022-09-20T12:37:26.816Z,57.53
2022-09-20T12:38:27.637Z,56.10
2022-09-20T12:39:29.968Z,57.83
2022-09-20T12:40:26.904Z,57.20
2022-09-20T12:41:28.830Z,58.00
2022-09-20T12:42:26.751Z,56.99
2022-09-20T12:43:26.811Z,56.05
2022-09-20T12:44:26.782Z,57.07
2022-09-20T12:45:26.759Z,57.07
2022-09-20T12:46:26.784Z,56.56
2022-09-20T12:47:26.695Z,58.18
2022-09-20T12:48:26.770Z,57.37
2022-09-20T12:49:26.699Z,58.07
2022-09-20T12:50:26.671Z,57.80
2022-09-20T12:51:26.677Z,58.20
2022-09-20T12:52:26.684Z,59.32
2022-09-20T12:53:26.800Z,59.22
2022-09-20T12:54:26.724Z,60.13
2022-09-20T12:55:26.661Z,58.61
2022-09-20T12:56:26.730Z,58.51
2022-09-20T12:57:26.601Z,59.25